sensor_id;sensor_type;location;lat;lon;timestamp;P1;durP1;ratioP1;P2;durP2;ratioP2
18818;SDS011;9537;45.594;9.294;2023-02-28T00:00:08;11.83;;;8.37;;
18818;SDS011;9537;45.594;9.294;2023-02-28T00:01:11;13.43;;;8.00;;
18818;SDS011;9537;45.594;9.294;2023-02-28T00:02:13;12.23;;;7.83;;
18818;SDS011;9537;45.594;9.294;2023-02-28T00:03:15;14.70;;;7.90;;
18818;SDS011;9537;45.594;9.294;2023-02-28T00:04:17;10.53;;;7.80;;
18818;SDS011;9537;45.594;9.294;2023-02-28T00:05:18;12.20;;;8.50;;
18818;SDS011;9537;45.594;9.294;2023-02-28T00:06:22;10.87;;;7.73;;
18818;SDS011;9537;45.594;9.294;2023-02-28T00:07:24;10.80;;;7.80;;
18818;SDS011;9537;45.594;9.294;2023-02-28T00:08:26;10.37;;;7.70;;
18818;SDS011;9537;45.594;9.294;2023-02-28T00:09:29;9.60;;;7.20;;
18818;SDS011;9537;45.594;9.294;2023-02-28T00:10:31;10.57;;;7.40;;
18818;SDS011;9537;45.594;9.294;2023-02-28T00:11:32;13.13;;;7.50;;
18818;SDS011;9537;45.594;9.294;2023-02-28T00:12:34;11.10;;;7.30;;
18818;SDS011;9537;45.594;9.294;2023-02-28T00:13:37;11.33;;;7.57;;
18818;SDS011;9537;45.594;9.294;2023-02-28T00:14:41;12.40;;;6.93;;
18818;SDS011;9537;45.594;9.294;2023-02-28T00:15:42;10.03;;;6.43;;
18818;SDS011;9537;45.594;9.294;2023-02-28T00:16:45;10.80;;;7.50;;
18818;SDS011;9537;45.594;9.294;2023-02-28T00:17:46;9.33;;;6.60;;
18818;SDS011;9537;45.594;9.294;2023-02-28T00:18:49;11.30;;;6.90;;
18818;SDS011;9537;45.594;9.294;2023-02-28T00:19:51;8.60;;;7.10;;
18818;SDS011;9537;45.594;9.294;2023-02-28T00:20:53;12.50;;;5.90;;
18818;SDS011;9537;45.594;9.294;2023-02-28T00:21:54;9.00;;;6.50;;
18818;SDS011;9537;45.594;9.294;2023-02-28T00:22:56;9.73;;;6.67;;
18818;SDS011;9537;45.594;9.294;2023-02-28T00:23:57;8.80;;;6.10;;
18818;SDS011;9537;45.594;9.294;2023-02-28T00:25:01;10.10;;;6.27;;
18818;SDS011;9537;45.594;9.294;2023-02-28T00:26:02;9.37;;;5.97;;
18818;SDS011;9537;45.594;9.294;2023-02-28T00:27:05;10.13;;;6.50;;
18818;SDS011;9537;45.594;9.294;2023-02-28T00:28:06;9.37;;;6.13;;
18818;SDS011;9537;45.594;9.294;2023-02-28T00:29:08;10.00;;;6.10;;
18818;SDS011;9537;45.594;9.294;2023-02-28T00:30:10;12.50;;;5.90;;
18818;SDS011;9537;45.594;9.294;2023-02-28T00:31:13;8.13;;;5.63;;
18818;SDS011;9537;45.594;9.294;2023-02-28T00:32:15;13.07;;;5.70;;
18818;SDS011;9537;45.594;9.294;2023-02-28T00:33:16;9.93;;;5.83;;
18818;SDS011;9537;45.594;9.294;2023-02-28T00:34:18;12.90;;;5.77;;
18818;SDS011;9537;45.594;9.294;2023-02-28T00:35:19;10.73;;;6.10;;
18818;SDS011;9537;45.594;9.294;2023-02-28T00:36:21;7.63;;;5.70;;
18818;SDS011;9537;45.594;9.294;2023-02-28T00:37:22;8.70;;;5.70;;
18818;SDS011;9537;45.594;9.294;2023-02-28T00:38:25;8.30;;;5.83;;
18818;SDS011;9537;45.594;9.294;2023-02-28T00:39:26;7.87;;;5.10;;
18818;SDS011;9537;45.594;9.294;2023-02-28T00:40:30;8.83;;;5.30;;
18818;SDS011;9537;45.594;9.294;2023-02-28T00:41:31;8.47;;;5.70;;
18818;SDS011;9537;45.594;9.294;2023-02-28T00:42:32;8.90;;;5.80;;
18818;SDS011;9537;45.594;9.294;2023-02-28T00:43:35;5.93;;;4.87;;
18818;SDS011;9537;45.594;9.294;2023-02-28T00:44:38;10.33;;;5.73;;
18818;SDS011;9537;45.594;9.294;2023-02-28T00:45:39;8.53;;;6.37;;
18818;SDS011;9537;45.594;9.294;2023-02-28T00:46:41;7.87;;;5.57;;
18818;SDS011;9537;45.594;9.294;2023-02-28T00:47:42;8.93;;;5.30;;
18818;SDS011;9537;45.594;9.294;2023-02-28T00:48:44;11.60;;;5.73;;
18818;SDS011;9537;45.594;9.294;2023-02-28T00:49:45;7.83;;;5.23;;
18818;SDS011;9537;45.594;9.294;2023-02-28T00:50:48;7.23;;;5.30;;
18818;SDS011;9537;45.594;9.294;2023-02-28T00:51:49;8.57;;;5.40;;
18818;SDS011;9537;45.594;9.294;2023-02-28T00:52:52;7.80;;;5.53;;
18818;SDS011;9537;45.594;9.294;2023-02-28T00:53:53;9.77;;;5.47;;
18818;SDS011;9537;45.594;9.294;2023-02-28T00:54:55;13.20;;;5.40;;
18818;SDS011;9537;45.594;9.294;2023-02-28T00:55:57;9.30;;;5.80;;
18818;SDS011;9537;45.594;9.294;2023-02-28T00:56:59;9.20;;;5.37;;
18818;SDS011;9537;45.594;9.294;2023-02-28T00:58:00;7.77;;;5.43;;
18818;SDS011;9537;45.594;9.294;2023-02-28T00:59:02;8.00;;;5.23;;
18818;SDS011;9537;45.594;9.294;2023-02-28T01:00:04;10.83;;;5.80;;
18818;SDS011;9537;45.594;9.294;2023-02-28T01:01:07;8.50;;;5.20;;
18818;SDS011;9537;45.594;9.294;2023-02-28T01:02:09;8.90;;;4.87;;
18818;SDS011;9537;45.594;9.294;2023-02-28T01:03:11;8.23;;;4.73;;
18818;SDS011;9537;45.594;9.294;2023-02-28T01:04:12;8.83;;;5.07;;
18818;SDS011;9537;45.594;9.294;2023-02-28T01:05:15;8.57;;;5.20;;
18818;SDS011;9537;45.594;9.294;2023-02-28T01:06:16;7.53;;;4.80;;
18818;SDS011;9537;45.594;9.294;2023-02-28T01:07:18;6.77;;;5.03;;
18818;SDS011;9537;45.594;9.294;2023-02-28T01:08:19;8.10;;;5.40;;
18818;SDS011;9537;45.594;9.294;2023-02-28T01:09:21;7.17;;;4.90;;
18818;SDS011;9537;45.594;9.294;2023-02-28T01:10:22;7.67;;;4.90;;
18818;SDS011;9537;45.594;9.294;2023-02-28T01:11:25;8.83;;;5.80;;
18818;SDS011;9537;45.594;9.294;2023-02-28T01:12:26;11.40;;;5.50;;
18818;SDS011;9537;45.594;9.294;2023-02-28T01:13:28;7.63;;;5.20;;
18818;SDS011;9537;45.594;9.294;2023-02-28T01:14:29;7.37;;;5.53;;
18818;SDS011;9537;45.594;9.294;2023-02-28T01:15:31;8.03;;;5.53;;
18818;SDS011;9537;45.594;9.294;2023-02-28T01:16:33;8.60;;;5.43;;
18818;SDS011;9537;45.594;9.294;2023-02-28T01:17:35;9.07;;;5.80;;
18818;SDS011;9537;45.594;9.294;2023-02-28T01:18:37;7.13;;;5.13;;
18818;SDS011;9537;45.594;9.294;2023-02-28T01:19:39;9.20;;;5.57;;
18818;SDS011;9537;45.594;9.294;2023-02-28T01:20:40;7.53;;;5.30;;
18818;SDS011;9537;45.594;9.294;2023-02-28T01:21:43;9.93;;;5.40;;
18818;SDS011;9537;45.594;9.294;2023-02-28T01:22:44;10.20;;;5.83;;
18818;SDS011;9537;45.594;9.294;2023-02-28T01:23:46;7.77;;;5.43;;
18818;SDS011;9537;45.594;9.294;2023-02-28T01:24:48;6.70;;;4.57;;
18818;SDS011;9537;45.594;9.294;2023-02-28T01:25:50;9.60;;;5.77;;
18818;SDS011;9537;45.594;9.294;2023-02-28T01:26:52;7.63;;;5.20;;
18818;SDS011;9537;45.594;9.294;2023-02-28T01:27:54;6.60;;;5.57;;
18818;SDS011;9537;45.594;9.294;2023-02-28T01:32:37;8.23;;;4.73;;
18818;SDS011;9537;45.594;9.294;2023-02-28T01:33:38;7.43;;;5.03;;
18818;SDS011;9537;45.594;9.294;2023-02-28T01:34:41;9.33;;;5.77;;
18818;SDS011;9537;45.594;9.294;2023-02-28T01:35:42;10.00;;;5.20;;
18818;SDS011;9537;45.594;9.294;2023-02-28T01:36:44;9.07;;;5.20;;
18818;SDS011;9537;45.594;9.294;2023-02-28T01:37:46;6.60;;;5.33;;
18818;SDS011;9537;45.594;9.294;2023-02-28T01:38:48;8.90;;;6.00;;
18818;SDS011;9537;45.594;9.294;2023-02-28T01:39:50;9.30;;;5.50;;
18818;SDS011;9537;45.594;9.294;2023-02-28T01:40:52;11.97;;;5.67;;
18818;SDS011;9537;45.594;9.294;2023-02-28T01:41:54;9.47;;;5.70;;
18818;SDS011;9537;45.594;9.294;2023-02-28T01:42:57;8.30;;;5.67;;
18818;SDS011;9537;45.594;9.294;2023-02-28T01:43:59;10.37;;;5.73;;
18818;SDS011;9537;45.594;9.294;2023-02-28T01:45:14;7.90;;;5.10;;
18818;SDS011;9537;45.594;9.294;2023-02-28T01:46:19;8.73;;;5.43;;
18818;SDS011;9537;45.594;9.294;2023-02-28T01:47:21;7.50;;;5.67;;
18818;SDS011;9537;45.594;9.294;2023-02-28T01:48:25;6.93;;;5.03;;
18818;SDS011;9537;45.594;9.294;2023-02-28T01:49:31;8.10;;;5.43;;
18818;SDS011;9537;45.594;9.294;2023-02-28T01:50:34;9.03;;;6.07;;
18818;SDS011;9537;45.594;9.294;2023-02-28T01:51:40;15.47;;;5.77;;
18818;SDS011;9537;45.594;9.294;2023-02-28T01:52:46;8.57;;;5.53;;
18818;SDS011;9537;45.594;9.294;2023-02-28T01:53:50;8.00;;;6.17;;
18818;SDS011;9537;45.594;9.294;2023-02-28T01:54:55;8.47;;;5.17;;
18818;SDS011;9537;45.594;9.294;2023-02-28T01:56:00;8.10;;;5.73;;
18818;SDS011;9537;45.594;9.294;2023-02-28T01:57:09;8.37;;;5.47;;
18818;SDS011;9537;45.594;9.294;2023-02-28T01:58:13;9.80;;;5.70;;
18818;SDS011;9537;45.594;9.294;2023-02-28T01:59:17;7.63;;;5.43;;
18818;SDS011;9537;45.594;9.294;2023-02-28T02:00:25;7.43;;;4.93;;
18818;SDS011;9537;45.594;9.294;2023-02-28T02:01:27;11.07;;;5.57;;
18818;SDS011;9537;45.594;9.294;2023-02-28T02:02:31;11.23;;;6.27;;
18818;SDS011;9537;45.594;9.294;2023-02-28T02:03:32;9.40;;;5.63;;
18818;SDS011;9537;45.594;9.294;2023-02-28T02:04:39;7.23;;;5.27;;
18818;SDS011;9537;45.594;9.294;2023-02-28T02:05:46;7.23;;;5.43;;
18818;SDS011;9537;45.594;9.294;2023-02-28T02:06:48;9.97;;;5.80;;
18818;SDS011;9537;45.594;9.294;2023-02-28T02:07:50;8.47;;;5.83;;
18818;SDS011;9537;45.594;9.294;2023-02-28T02:08:55;9.10;;;5.93;;
18818;SDS011;9537;45.594;9.294;2023-02-28T02:09:59;9.33;;;5.53;;
18818;SDS011;9537;45.594;9.294;2023-02-28T02:11:03;9.63;;;6.27;;
18818;SDS011;9537;45.594;9.294;2023-02-28T02:12:09;8.57;;;6.13;;
18818;SDS011;9537;45.594;9.294;2023-02-28T02:13:23;10.43;;;5.93;;
18818;SDS011;9537;45.594;9.294;2023-02-28T02:14:51;8.47;;;5.93;;
18818;SDS011;9537;45.594;9.294;2023-02-28T02:16:04;7.53;;;5.40;;
18818;SDS011;9537;45.594;9.294;2023-02-28T02:17:20;10.23;;;5.67;;
18818;SDS011;9537;45.594;9.294;2023-02-28T02:18:30;8.37;;;5.90;;
18818;SDS011;9537;45.594;9.294;2023-02-28T02:19:44;9.03;;;5.50;;
18818;SDS011;9537;45.594;9.294;2023-02-28T02:21:36;6.93;;;5.50;;
18818;SDS011;9537;45.594;9.294;2023-02-28T02:23:27;8.00;;;5.33;;
18818;SDS011;9537;45.594;9.294;2023-02-28T02:25:06;9.47;;;6.30;;
18818;SDS011;9537;45.594;9.294;2023-02-28T02:26:30;8.93;;;5.77;;
18818;SDS011;9537;45.594;9.294;2023-02-28T02:29:34;8.20;;;5.93;;
18818;SDS011;9537;45.594;9.294;2023-02-28T02:32:32;8.87;;;5.67;;
18818;SDS011;9537;45.594;9.294;2023-02-28T02:34:06;10.73;;;6.00;;
18818;SDS011;9537;45.594;9.294;2023-02-28T02:35:18;8.10;;;4.97;;
18818;SDS011;9537;45.594;9.294;2023-02-28T02:36:27;8.67;;;5.30;;
18818;SDS011;9537;45.594;9.294;2023-02-28T02:37:35;9.73;;;6.30;;
18818;SDS011;9537;45.594;9.294;2023-02-28T02:38:43;8.80;;;5.80;;
18818;SDS011;9537;45.594;9.294;2023-02-28T02:39:51;9.33;;;5.93;;
18818;SDS011;9537;45.594;9.294;2023-02-28T02:41:02;9.17;;;5.80;;
18818;SDS011;9537;45.594;9.294;2023-02-28T02:42:11;9.77;;;5.77;;
18818;SDS011;9537;45.594;9.294;2023-02-28T02:43:17;8.27;;;5.87;;
18818;SDS011;9537;45.594;9.294;2023-02-28T02:44:26;9.90;;;6.17;;
18818;SDS011;9537;45.594;9.294;2023-02-28T02:45:32;7.50;;;5.00;;
18818;SDS011;9537;45.594;9.294;2023-02-28T02:46:39;7.17;;;5.07;;
18818;SDS011;9537;45.594;9.294;2023-02-28T02:47:44;7.77;;;5.90;;
18818;SDS011;9537;45.594;9.294;2023-02-28T02:48:46;11.00;;;5.90;;
18818;SDS011;9537;45.594;9.294;2023-02-28T02:49:51;8.60;;;5.60;;
18818;SDS011;9537;45.594;9.294;2023-02-28T02:50:55;8.83;;;5.60;;
18818;SDS011;9537;45.594;9.294;2023-02-28T02:52:02;7.20;;;5.40;;
18818;SDS011;9537;45.594;9.294;2023-02-28T02:53:06;8.60;;;5.30;;
18818;SDS011;9537;45.594;9.294;2023-02-28T02:54:11;8.20;;;5.83;;
18818;SDS011;9537;45.594;9.294;2023-02-28T02:55:16;8.33;;;5.20;;
18818;SDS011;9537;45.594;9.294;2023-02-28T02:56:20;8.83;;;5.30;;
18818;SDS011;9537;45.594;9.294;2023-02-28T02:57:27;8.73;;;5.60;;
18818;SDS011;9537;45.594;9.294;2023-02-28T02:58:35;8.97;;;5.30;;
18818;SDS011;9537;45.594;9.294;2023-02-28T02:59:42;7.80;;;5.90;;
18818;SDS011;9537;45.594;9.294;2023-02-28T03:00:47;7.97;;;5.47;;
18818;SDS011;9537;45.594;9.294;2023-02-28T03:01:51;9.23;;;5.70;;
18818;SDS011;9537;45.594;9.294;2023-02-28T03:02:57;9.57;;;6.37;;
18818;SDS011;9537;45.594;9.294;2023-02-28T03:03:59;15.40;;;6.10;;
18818;SDS011;9537;45.594;9.294;2023-02-28T03:05:06;10.57;;;5.80;;
18818;SDS011;9537;45.594;9.294;2023-02-28T03:06:15;13.27;;;5.43;;
18818;SDS011;9537;45.594;9.294;2023-02-28T03:07:17;9.13;;;5.63;;
18818;SDS011;9537;45.594;9.294;2023-02-28T03:08:18;8.37;;;5.37;;
18818;SDS011;9537;45.594;9.294;2023-02-28T03:09:20;8.40;;;5.70;;
18818;SDS011;9537;45.594;9.294;2023-02-28T03:10:32;7.03;;;5.33;;
18818;SDS011;9537;45.594;9.294;2023-02-28T03:11:37;9.30;;;5.80;;
18818;SDS011;9537;45.594;9.294;2023-02-28T03:12:41;8.93;;;5.47;;
18818;SDS011;9537;45.594;9.294;2023-02-28T03:13:56;9.83;;;5.63;;
18818;SDS011;9537;45.594;9.294;2023-02-28T03:15:07;8.23;;;6.00;;
18818;SDS011;9537;45.594;9.294;2023-02-28T03:16:25;10.57;;;6.50;;
18818;SDS011;9537;45.594;9.294;2023-02-28T03:17:42;11.90;;;5.77;;
18818;SDS011;9537;45.594;9.294;2023-02-28T03:18:57;8.43;;;5.53;;
18818;SDS011;9537;45.594;9.294;2023-02-28T03:20:17;15.33;;;5.80;;
18818;SDS011;9537;45.594;9.294;2023-02-28T03:21:30;9.27;;;5.93;;
18818;SDS011;9537;45.594;9.294;2023-02-28T03:22:40;11.93;;;5.90;;
18818;SDS011;9537;45.594;9.294;2023-02-28T03:23:53;10.00;;;5.50;;
18818;SDS011;9537;45.594;9.294;2023-02-28T03:25:01;7.67;;;5.80;;
18818;SDS011;9537;45.594;9.294;2023-02-28T03:26:12;7.93;;;5.27;;
18818;SDS011;9537;45.594;9.294;2023-02-28T03:27:21;9.47;;;6.10;;
18818;SDS011;9537;45.594;9.294;2023-02-28T03:28:30;7.70;;;5.27;;
18818;SDS011;9537;45.594;9.294;2023-02-28T03:29:39;9.67;;;6.43;;
18818;SDS011;9537;45.594;9.294;2023-02-28T03:30:46;10.10;;;5.33;;
18818;SDS011;9537;45.594;9.294;2023-02-28T03:31:52;8.97;;;5.87;;
18818;SDS011;9537;45.594;9.294;2023-02-28T03:33:02;9.33;;;6.30;;
18818;SDS011;9537;45.594;9.294;2023-02-28T03:34:08;7.63;;;5.80;;
18818;SDS011;9537;45.594;9.294;2023-02-28T03:35:14;9.07;;;6.03;;
18818;SDS011;9537;45.594;9.294;2023-02-28T03:36:22;13.93;;;6.50;;
18818;SDS011;9537;45.594;9.294;2023-02-28T03:37:28;7.73;;;5.90;;
18818;SDS011;9537;45.594;9.294;2023-02-28T03:38:33;9.00;;;5.90;;
18818;SDS011;9537;45.594;9.294;2023-02-28T03:39:38;11.33;;;6.27;;
18818;SDS011;9537;45.594;9.294;2023-02-28T03:40:45;10.57;;;6.33;;
18818;SDS011;9537;45.594;9.294;2023-02-28T03:41:52;10.20;;;5.50;;
18818;SDS011;9537;45.594;9.294;2023-02-28T03:43:01;12.40;;;6.57;;
18818;SDS011;9537;45.594;9.294;2023-02-28T03:44:07;8.03;;;6.13;;
18818;SDS011;9537;45.594;9.294;2023-02-28T03:45:16;9.37;;;6.10;;
18818;SDS011;9537;45.594;9.294;2023-02-28T03:46:23;9.00;;;5.70;;
18818;SDS011;9537;45.594;9.294;2023-02-28T03:47:29;11.67;;;5.73;;
18818;SDS011;9537;45.594;9.294;2023-02-28T03:48:38;8.00;;;5.63;;
18818;SDS011;9537;45.594;9.294;2023-02-28T03:49:44;9.37;;;6.10;;
18818;SDS011;9537;45.594;9.294;2023-02-28T03:50:53;9.33;;;5.67;;
18818;SDS011;9537;45.594;9.294;2023-02-28T03:51:59;8.70;;;5.97;;
18818;SDS011;9537;45.594;9.294;2023-02-28T03:53:11;7.80;;;5.80;;
18818;SDS011;9537;45.594;9.294;2023-02-28T03:54:16;7.63;;;5.87;;
18818;SDS011;9537;45.594;9.294;2023-02-28T03:55:21;9.20;;;6.23;;
18818;SDS011;9537;45.594;9.294;2023-02-28T03:56:24;9.40;;;6.20;;
18818;SDS011;9537;45.594;9.294;2023-02-28T03:57:32;9.60;;;6.27;;
18818;SDS011;9537;45.594;9.294;2023-02-28T03:58:39;7.07;;;5.60;;
18818;SDS011;9537;45.594;9.294;2023-02-28T03:59:45;16.53;;;6.60;;
18818;SDS011;9537;45.594;9.294;2023-02-28T04:00:52;9.37;;;6.30;;
18818;SDS011;9537;45.594;9.294;2023-02-28T04:01:59;8.90;;;6.17;;
18818;SDS011;9537;45.594;9.294;2023-02-28T04:03:01;8.33;;;6.23;;
18818;SDS011;9537;45.594;9.294;2023-02-28T04:04:03;12.43;;;6.40;;
18818;SDS011;9537;45.594;9.294;2023-02-28T04:05:06;8.70;;;6.03;;
18818;SDS011;9537;45.594;9.294;2023-02-28T04:06:15;10.97;;;6.60;;
18818;SDS011;9537;45.594;9.294;2023-02-28T04:07:19;8.77;;;5.90;;
18818;SDS011;9537;45.594;9.294;2023-02-28T04:08:20;10.87;;;6.70;;
18818;SDS011;9537;45.594;9.294;2023-02-28T04:09:23;8.47;;;5.63;;
18818;SDS011;9537;45.594;9.294;2023-02-28T04:10:24;11.40;;;6.60;;
18818;SDS011;9537;45.594;9.294;2023-02-28T04:11:27;6.63;;;5.63;;
18818;SDS011;9537;45.594;9.294;2023-02-28T04:12:32;11.17;;;6.47;;
18818;SDS011;9537;45.594;9.294;2023-02-28T04:13:34;8.77;;;6.33;;
18818;SDS011;9537;45.594;9.294;2023-02-28T04:14:35;8.20;;;6.20;;
18818;SDS011;9537;45.594;9.294;2023-02-28T04:15:38;9.73;;;6.30;;
18818;SDS011;9537;45.594;9.294;2023-02-28T04:16:40;9.43;;;6.13;;
18818;SDS011;9537;45.594;9.294;2023-02-28T04:17:43;8.23;;;5.97;;
18818;SDS011;9537;45.594;9.294;2023-02-28T04:18:43;8.90;;;6.30;;
18818;SDS011;9537;45.594;9.294;2023-02-28T04:19:45;7.53;;;5.60;;
18818;SDS011;9537;45.594;9.294;2023-02-28T04:20:47;10.23;;;6.43;;
18818;SDS011;9537;45.594;9.294;2023-02-28T04:21:50;8.37;;;5.93;;
18818;SDS011;9537;45.594;9.294;2023-02-28T04:22:54;10.40;;;6.77;;
18818;SDS011;9537;45.594;9.294;2023-02-28T04:23:55;7.80;;;5.53;;
18818;SDS011;9537;45.594;9.294;2023-02-28T04:25:00;10.20;;;6.37;;
18818;SDS011;9537;45.594;9.294;2023-02-28T04:26:03;10.33;;;6.03;;
18818;SDS011;9537;45.594;9.294;2023-02-28T04:27:04;10.63;;;6.20;;
18818;SDS011;9537;45.594;9.294;2023-02-28T04:28:06;13.03;;;6.30;;
18818;SDS011;9537;45.594;9.294;2023-02-28T04:29:07;10.80;;;6.17;;
18818;SDS011;9537;45.594;9.294;2023-02-28T04:30:10;11.03;;;5.70;;
18818;SDS011;9537;45.594;9.294;2023-02-28T04:31:11;9.77;;;6.50;;
18818;SDS011;9537;45.594;9.294;2023-02-28T04:32:13;9.13;;;6.33;;
18818;SDS011;9537;45.594;9.294;2023-02-28T04:33:14;11.27;;;6.50;;
18818;SDS011;9537;45.594;9.294;2023-02-28T04:34:16;10.03;;;6.43;;
18818;SDS011;9537;45.594;9.294;2023-02-28T04:35:19;8.63;;;5.97;;
18818;SDS011;9537;45.594;9.294;2023-02-28T04:36:21;12.03;;;6.33;;
18818;SDS011;9537;45.594;9.294;2023-02-28T04:37:24;9.73;;;6.10;;
18818;SDS011;9537;45.594;9.294;2023-02-28T04:38:29;11.17;;;7.27;;
18818;SDS011;9537;45.594;9.294;2023-02-28T04:39:34;7.50;;;5.63;;
18818;SDS011;9537;45.594;9.294;2023-02-28T04:40:37;11.67;;;6.20;;
18818;SDS011;9537;45.594;9.294;2023-02-28T04:41:38;10.57;;;6.13;;
18818;SDS011;9537;45.594;9.294;2023-02-28T04:42:39;10.03;;;6.40;;
18818;SDS011;9537;45.594;9.294;2023-02-28T04:43:41;9.37;;;6.33;;
18818;SDS011;9537;45.594;9.294;2023-02-28T04:44:43;8.60;;;6.37;;
18818;SDS011;9537;45.594;9.294;2023-02-28T04:45:45;8.73;;;6.10;;
18818;SDS011;9537;45.594;9.294;2023-02-28T04:46:47;11.83;;;6.70;;
18818;SDS011;9537;45.594;9.294;2023-02-28T04:47:49;9.63;;;5.90;;
18818;SDS011;9537;45.594;9.294;2023-02-28T04:48:50;9.83;;;6.67;;
18818;SDS011;9537;45.594;9.294;2023-02-28T04:49:53;11.53;;;6.40;;
18818;SDS011;9537;45.594;9.294;2023-02-28T04:50:54;10.00;;;6.23;;
18818;SDS011;9537;45.594;9.294;2023-02-28T04:51:57;9.70;;;5.73;;
18818;SDS011;9537;45.594;9.294;2023-02-28T04:52:59;11.23;;;6.57;;
18818;SDS011;9537;45.594;9.294;2023-02-28T04:54:01;10.77;;;6.20;;
18818;SDS011;9537;45.594;9.294;2023-02-28T04:55:02;9.00;;;5.70;;
18818;SDS011;9537;45.594;9.294;2023-02-28T04:56:06;12.40;;;7.00;;
18818;SDS011;9537;45.594;9.294;2023-02-28T04:57:07;10.70;;;6.87;;
18818;SDS011;9537;45.594;9.294;2023-02-28T04:58:09;8.90;;;6.80;;
18818;SDS011;9537;45.594;9.294;2023-02-28T04:59:10;9.67;;;6.33;;
18818;SDS011;9537;45.594;9.294;2023-02-28T05:00:12;9.97;;;6.30;;
18818;SDS011;9537;45.594;9.294;2023-02-28T05:01:18;11.93;;;6.20;;
18818;SDS011;9537;45.594;9.294;2023-02-28T05:02:23;11.50;;;6.70;;
18818;SDS011;9537;45.594;9.294;2023-02-28T05:03:24;12.00;;;6.80;;
18818;SDS011;9537;45.594;9.294;2023-02-28T05:04:26;8.80;;;6.47;;
18818;SDS011;9537;45.594;9.294;2023-02-28T05:05:27;11.07;;;6.20;;
18818;SDS011;9537;45.594;9.294;2023-02-28T05:06:30;11.53;;;6.70;;
18818;SDS011;9537;45.594;9.294;2023-02-28T05:07:32;8.70;;;6.37;;
18818;SDS011;9537;45.594;9.294;2023-02-28T05:08:36;12.17;;;6.70;;
18818;SDS011;9537;45.594;9.294;2023-02-28T05:09:37;10.60;;;7.07;;
18818;SDS011;9537;45.594;9.294;2023-02-28T05:10:38;10.20;;;7.17;;
18818;SDS011;9537;45.594;9.294;2023-02-28T05:11:40;11.77;;;6.43;;
18818;SDS011;9537;45.594;9.294;2023-02-28T05:12:43;11.13;;;7.20;;
18818;SDS011;9537;45.594;9.294;2023-02-28T05:13:44;10.83;;;7.13;;
18818;SDS011;9537;45.594;9.294;2023-02-28T05:14:46;10.10;;;6.90;;
18818;SDS011;9537;45.594;9.294;2023-02-28T05:15:48;8.27;;;6.43;;
18818;SDS011;9537;45.594;9.294;2023-02-28T05:16:50;9.33;;;6.70;;
18818;SDS011;9537;45.594;9.294;2023-02-28T05:17:51;9.53;;;6.63;;
18818;SDS011;9537;45.594;9.294;2023-02-28T05:18:54;9.47;;;6.60;;
18818;SDS011;9537;45.594;9.294;2023-02-28T05:19:55;10.17;;;7.07;;
18818;SDS011;9537;45.594;9.294;2023-02-28T05:20:57;9.67;;;6.07;;
18818;SDS011;9537;45.594;9.294;2023-02-28T05:21:58;10.53;;;6.63;;
18818;SDS011;9537;45.594;9.294;2023-02-28T05:23:00;10.97;;;6.50;;
18818;SDS011;9537;45.594;9.294;2023-02-28T05:24:04;9.13;;;6.57;;
18818;SDS011;9537;45.594;9.294;2023-02-28T05:25:08;11.27;;;6.97;;
18818;SDS011;9537;45.594;9.294;2023-02-28T05:26:12;12.20;;;7.00;;
18818;SDS011;9537;45.594;9.294;2023-02-28T05:27:14;9.60;;;6.57;;
18818;SDS011;9537;45.594;9.294;2023-02-28T05:28:15;10.70;;;7.00;;
18818;SDS011;9537;45.594;9.294;2023-02-28T05:29:18;12.07;;;7.07;;
18818;SDS011;9537;45.594;9.294;2023-02-28T05:30:19;11.53;;;7.13;;
18818;SDS011;9537;45.594;9.294;2023-02-28T05:31:22;9.97;;;6.97;;
18818;SDS011;9537;45.594;9.294;2023-02-28T05:32:23;10.20;;;7.27;;
18818;SDS011;9537;45.594;9.294;2023-02-28T05:33:25;13.83;;;7.90;;
18818;SDS011;9537;45.594;9.294;2023-02-28T05:34:26;10.80;;;6.87;;
18818;SDS011;9537;45.594;9.294;2023-02-28T05:35:29;12.37;;;7.03;;
18818;SDS011;9537;45.594;9.294;2023-02-28T05:36:36;11.20;;;7.83;;
18818;SDS011;9537;45.594;9.294;2023-02-28T05:37:38;13.57;;;7.43;;
18818;SDS011;9537;45.594;9.294;2023-02-28T05:38:39;15.10;;;7.30;;
18818;SDS011;9537;45.594;9.294;2023-02-28T05:39:43;10.77;;;7.50;;
18818;SDS011;9537;45.594;9.294;2023-02-28T05:40:44;13.70;;;7.10;;
18818;SDS011;9537;45.594;9.294;2023-02-28T05:41:46;9.80;;;7.17;;
18818;SDS011;9537;45.594;9.294;2023-02-28T05:42:48;13.43;;;7.40;;
18818;SDS011;9537;45.594;9.294;2023-02-28T05:43:51;11.23;;;6.97;;
18818;SDS011;9537;45.594;9.294;2023-02-28T05:44:52;9.80;;;6.77;;
18818;SDS011;9537;45.594;9.294;2023-02-28T05:45:55;11.67;;;7.53;;
18818;SDS011;9537;45.594;9.294;2023-02-28T05:46:56;10.03;;;7.03;;
18818;SDS011;9537;45.594;9.294;2023-02-28T05:47:58;11.87;;;7.43;;
18818;SDS011;9537;45.594;9.294;2023-02-28T05:48:59;9.10;;;6.57;;
18818;SDS011;9537;45.594;9.294;2023-02-28T05:50:01;9.80;;;7.10;;
18818;SDS011;9537;45.594;9.294;2023-02-28T05:51:02;10.47;;;7.33;;
18818;SDS011;9537;45.594;9.294;2023-02-28T05:52:05;12.50;;;7.70;;
18818;SDS011;9537;45.594;9.294;2023-02-28T05:53:06;12.47;;;7.60;;
18818;SDS011;9537;45.594;9.294;2023-02-28T05:54:08;12.10;;;7.77;;
18818;SDS011;9537;45.594;9.294;2023-02-28T05:55:11;14.27;;;7.80;;
18818;SDS011;9537;45.594;9.294;2023-02-28T05:56:13;12.80;;;8.00;;
18818;SDS011;9537;45.594;9.294;2023-02-28T05:57:14;14.67;;;7.77;;
18818;SDS011;9537;45.594;9.294;2023-02-28T05:58:17;11.10;;;7.83;;
18818;SDS011;9537;45.594;9.294;2023-02-28T05:59:19;11.23;;;7.73;;
18818;SDS011;9537;45.594;9.294;2023-02-28T06:00:21;12.20;;;7.60;;
18818;SDS011;9537;45.594;9.294;2023-02-28T06:01:24;11.73;;;7.50;;
18818;SDS011;9537;45.594;9.294;2023-02-28T06:02:33;12.77;;;7.00;;
18818;SDS011;9537;45.594;9.294;2023-02-28T06:03:35;14.57;;;8.40;;
18818;SDS011;9537;45.594;9.294;2023-02-28T06:04:36;13.20;;;8.17;;
18818;SDS011;9537;45.594;9.294;2023-02-28T06:05:37;12.97;;;8.13;;
18818;SDS011;9537;45.594;9.294;2023-02-28T06:06:39;10.03;;;7.53;;
18818;SDS011;9537;45.594;9.294;2023-02-28T06:07:41;12.20;;;7.83;;
18818;SDS011;9537;45.594;9.294;2023-02-28T06:08:43;12.13;;;8.80;;
18818;SDS011;9537;45.594;9.294;2023-02-28T06:09:46;12.60;;;7.87;;
18818;SDS011;9537;45.594;9.294;2023-02-28T06:10:50;14.37;;;8.17;;
18818;SDS011;9537;45.594;9.294;2023-02-28T06:11:51;14.30;;;8.10;;
18818;SDS011;9537;45.594;9.294;2023-02-28T06:12:52;12.47;;;8.17;;
18818;SDS011;9537;45.594;9.294;2023-02-28T06:13:54;13.53;;;8.20;;
18818;SDS011;9537;45.594;9.294;2023-02-28T06:14:56;11.17;;;7.70;;
18818;SDS011;9537;45.594;9.294;2023-02-28T06:16:00;14.27;;;8.27;;
18818;SDS011;9537;45.594;9.294;2023-02-28T06:17:02;11.93;;;7.90;;
18818;SDS011;9537;45.594;9.294;2023-02-28T06:18:05;14.00;;;7.93;;
18818;SDS011;9537;45.594;9.294;2023-02-28T06:19:06;13.73;;;8.23;;
18818;SDS011;9537;45.594;9.294;2023-02-28T06:20:09;11.53;;;7.80;;
18818;SDS011;9537;45.594;9.294;2023-02-28T06:21:11;12.13;;;7.27;;
18818;SDS011;9537;45.594;9.294;2023-02-28T06:22:14;11.93;;;7.80;;
18818;SDS011;9537;45.594;9.294;2023-02-28T06:23:15;11.57;;;7.67;;
18818;SDS011;9537;45.594;9.294;2023-02-28T06:24:17;14.10;;;8.27;;
18818;SDS011;9537;45.594;9.294;2023-02-28T06:25:19;10.83;;;7.73;;
18818;SDS011;9537;45.594;9.294;2023-02-28T06:26:22;11.77;;;8.40;;
18818;SDS011;9537;45.594;9.294;2023-02-28T06:27:24;14.10;;;8.17;;
18818;SDS011;9537;45.594;9.294;2023-02-28T06:28:26;13.10;;;7.20;;
18818;SDS011;9537;45.594;9.294;2023-02-28T06:29:27;15.30;;;8.60;;
18818;SDS011;9537;45.594;9.294;2023-02-28T06:30:29;11.53;;;8.00;;
18818;SDS011;9537;45.594;9.294;2023-02-28T06:31:31;12.87;;;8.43;;
18818;SDS011;9537;45.594;9.294;2023-02-28T06:32:33;14.27;;;7.37;;
18818;SDS011;9537;45.594;9.294;2023-02-28T06:33:36;13.17;;;8.53;;
18818;SDS011;9537;45.594;9.294;2023-02-28T06:34:40;12.07;;;7.60;;
18818;SDS011;9537;45.594;9.294;2023-02-28T06:35:43;13.43;;;8.27;;
18818;SDS011;9537;45.594;9.294;2023-02-28T06:36:45;12.60;;;7.80;;
18818;SDS011;9537;45.594;9.294;2023-02-28T06:37:46;15.10;;;8.70;;